sensor_id;sensor_type;location;lat;lon;timestamp;temperature;humidity
22069;DHT22;13887;57.196;-2.100;2023-07-29T00:00:09;17.17;78.42
22069;DHT22;13887;57.196;-2.100;2023-07-29T00:02:40;17.18;78.45
22069;DHT22;13887;57.196;-2.100;2023-07-29T00:05:07;17.18;78.55
22069;DHT22;13887;57.196;-2.100;2023-07-29T00:07:35;17.18;78.49
22069;DHT22;13887;57.196;-2.100;2023-07-29T00:10:02;17.16;78.43
22069;DHT22;13887;57.196;-2.100;2023-07-29T00:12:30;17.15;78.45
22069;DHT22;13887;57.196;-2.100;2023-07-29T00:14:57;17.16;78.43
22069;DHT22;13887;57.196;-2.100;2023-07-29T00:17:24;17.14;78.38
22069;DHT22;13887;57.196;-2.100;2023-07-29T00:19:51;17.10;78.27
22069;DHT22;13887;57.196;-2.100;2023-07-29T00:22:18;17.08;78.21
22069;DHT22;13887;57.196;-2.100;2023-07-29T00:24:51;17.06;78.15
22069;DHT22;13887;57.196;-2.100;2023-07-29T00:27:19;17.05;78.21
22069;DHT22;13887;57.196;-2.100;2023-07-29T00:29:47;17.05;78.14
22069;DHT22;13887;57.196;-2.100;2023-07-29T00:32:15;17.04;78.24
22069;DHT22;13887;57.196;-2.100;2023-07-29T00:34:44;17.05;78.36
22069;DHT22;13887;57.196;-2.100;2023-07-29T00:37:11;17.04;78.34
22069;DHT22;13887;57.196;-2.100;2023-07-29T00:39:39;17.04;78.21
22069;DHT22;13887;57.196;-2.100;2023-07-29T00:42:08;17.04;78.23
22069;DHT22;13887;57.196;-2.100;2023-07-29T00:44:36;17.04;78.18
22069;DHT22;13887;57.196;-2.100;2023-07-29T00:47:04;17.03;78.15
22069;DHT22;13887;57.196;-2.100;2023-07-29T00:49:33;17.02;78.18
22069;DHT22;13887;57.196;-2.100;2023-07-29T00:52:00;17.01;78.11
22069;DHT22;13887;57.196;-2.100;2023-07-29T00:54:27;16.99;78.22
22069;DHT22;13887;57.196;-2.100;2023-07-29T00:56:54;16.98;78.14
22069;DHT22;13887;57.196;-2.100;2023-07-29T00:59:22;16.95;78.14
22069;DHT22;13887;57.196;-2.100;2023-07-29T01:01:49;16.95;78.21
22069;DHT22;13887;57.196;-2.100;2023-07-29T01:04:16;16.92;78.27
22069;DHT22;13887;57.196;-2.100;2023-07-29T01:10:22;16.92;78.24
22069;DHT22;13887;57.196;-2.100;2023-07-29T01:13:05;16.91;78.32
22069;DHT22;13887;57.196;-2.100;2023-07-29T01:15:48;16.88;78.24
22069;DHT22;13887;57.196;-2.100;2023-07-29T01:18:29;16.88;78.36
22069;DHT22;13887;57.196;-2.100;2023-07-29T01:21:04;16.88;78.40
22069;DHT22;13887;57.196;-2.100;2023-07-29T01:23:33;16.89;78.43
22069;DHT22;13887;57.196;-2.100;2023-07-29T01:26:01;16.87;78.45
22069;DHT22;13887;57.196;-2.100;2023-07-29T01:28:28;16.87;78.52
22069;DHT22;13887;57.196;-2.100;2023-07-29T01:31:10;16.90;78.49
22069;DHT22;13887;57.196;-2.100;2023-07-29T01:33:44;16.88;78.55
22069;DHT22;13887;57.196;-2.100;2023-07-29T01:36:20;16.87;78.63
22069;DHT22;13887;57.196;-2.100;2023-07-29T01:38:50;16.85;78.72
22069;DHT22;13887;57.196;-2.100;2023-07-29T01:41:20;16.84;78.69
22069;DHT22;13887;57.196;-2.100;2023-07-29T01:43:48;16.82;78.68
22069;DHT22;13887;57.196;-2.100;2023-07-29T01:46:16;16.81;78.79
22069;DHT22;13887;57.196;-2.100;2023-07-29T01:48:43;16.80;78.81
22069;DHT22;13887;57.196;-2.100;2023-07-29T01:51:12;16.79;78.91
22069;DHT22;13887;57.196;-2.100;2023-07-29T01:53:40;16.78;78.92
22069;DHT22;13887;57.196;-2.100;2023-07-29T01:56:08;16.78;78.90
22069;DHT22;13887;57.196;-2.100;2023-07-29T01:58:38;16.77;78.95
22069;DHT22;13887;57.196;-2.100;2023-07-29T02:01:05;16.77;79.00
22069;DHT22;13887;57.196;-2.100;2023-07-29T02:03:32;16.78;78.98
22069;DHT22;13887;57.196;-2.100;2023-07-29T02:06:00;16.76;79.10
22069;DHT22;13887;57.196;-2.100;2023-07-29T02:08:27;16.76;79.05
22069;DHT22;13887;57.196;-2.100;2023-07-29T02:10:54;16.75;79.06
22069;DHT22;13887;57.196;-2.100;2023-07-29T02:13:21;16.78;79.11
22069;DHT22;13887;57.196;-2.100;2023-07-29T02:15:48;16.81;78.95
22069;DHT22;13887;57.196;-2.100;2023-07-29T02:18:15;16.80;79.04
22069;DHT22;13887;57.196;-2.100;2023-07-29T02:20:42;16.81;78.98
22069;DHT22;13887;57.196;-2.100;2023-07-29T02:23:16;16.80;78.86
22069;DHT22;13887;57.196;-2.100;2023-07-29T02:25:44;16.80;78.96
22069;DHT22;13887;57.196;-2.100;2023-07-29T02:28:12;16.81;78.95
22069;DHT22;13887;57.196;-2.100;2023-07-29T02:30:45;16.80;78.88
22069;DHT22;13887;57.196;-2.100;2023-07-29T02:33:13;16.81;78.85
22069;DHT22;13887;57.196;-2.100;2023-07-29T02:35:40;16.79;78.87
22069;DHT22;13887;57.196;-2.100;2023-07-29T02:38:07;16.77;78.85
22069;DHT22;13887;57.196;-2.100;2023-07-29T02:40:34;16.78;78.80
22069;DHT22;13887;57.196;-2.100;2023-07-29T02:43:02;16.77;78.84
22069;DHT22;13887;57.196;-2.100;2023-07-29T02:45:29;16.76;78.85
22069;DHT22;13887;57.196;-2.100;2023-07-29T02:47:56;16.74;78.89
22069;DHT22;13887;57.196;-2.100;2023-07-29T02:50:23;16.71;78.97
22069;DHT22;13887;57.196;-2.100;2023-07-29T02:52:50;16.72;79.08
22069;DHT22;13887;57.196;-2.100;2023-07-29T02:55:18;16.69;79.10
22069;DHT22;13887;57.196;-2.100;2023-07-29T02:57:46;16.64;79.18
22069;DHT22;13887;57.196;-2.100;2023-07-29T03:00:13;16.66;79.28
22069;DHT22;13887;57.196;-2.100;2023-07-29T03:02:42;16.64;79.23
22069;DHT22;13887;57.196;-2.100;2023-07-29T03:05:09;16.65;79.21
22069;DHT22;13887;57.196;-2.100;2023-07-29T03:07:36;16.65;79.22
22069;DHT22;13887;57.196;-2.100;2023-07-29T03:10:04;16.64;79.28
22069;DHT22;13887;57.196;-2.100;2023-07-29T03:12:31;16.64;79.24
22069;DHT22;13887;57.196;-2.100;2023-07-29T03:14:59;16.65;79.24
22069;DHT22;13887;57.196;-2.100;2023-07-29T03:17:27;16.66;79.24
22069;DHT22;13887;57.196;-2.100;2023-07-29T03:19:54;16.60;79.30
22069;DHT22;13887;57.196;-2.100;2023-07-29T03:22:22;16.61;79.34
22069;DHT22;13887;57.196;-2.100;2023-07-29T03:24:49;16.60;79.37
22069;DHT22;13887;57.196;-2.100;2023-07-29T03:27:16;16.58;79.41
22069;DHT22;13887;57.196;-2.100;2023-07-29T03:29:43;16.59;79.51
22069;DHT22;13887;57.196;-2.100;2023-07-29T03:32:11;16.61;79.37
22069;DHT22;13887;57.196;-2.100;2023-07-29T03:34:38;16.62;79.27
22069;DHT22;13887;57.196;-2.100;2023-07-29T03:37:07;16.60;79.27
22069;DHT22;13887;57.196;-2.100;2023-07-29T03:39:34;16.63;79.22
22069;DHT22;13887;57.196;-2.100;2023-07-29T03:42:01;16.59;79.19
22069;DHT22;13887;57.196;-2.100;2023-07-29T03:44:28;16.62;79.24
22069;DHT22;13887;57.196;-2.100;2023-07-29T03:46:55;16.63;79.14
22069;DHT22;13887;57.196;-2.100;2023-07-29T03:49:23;16.63;79.09
22069;DHT22;13887;57.196;-2.100;2023-07-29T03:51:50;16.60;79.01
22069;DHT22;13887;57.196;-2.100;2023-07-29T03:54:17;16.61;79.01
22069;DHT22;13887;57.196;-2.100;2023-07-29T03:56:44;16.60;78.95
22069;DHT22;13887;57.196;-2.100;2023-07-29T03:59:11;16.60;78.91
22069;DHT22;13887;57.196;-2.100;2023-07-29T04:01:38;16.59;78.89
22069;DHT22;13887;57.196;-2.100;2023-07-29T04:04:06;16.59;78.90
22069;DHT22;13887;57.196;-2.100;2023-07-29T04:06:34;16.59;78.85
22069;DHT22;13887;57.196;-2.100;2023-07-29T04:09:01;16.60;78.80
22069;DHT22;13887;57.196;-2.100;2023-07-29T04:11:29;16.57;78.75
22069;DHT22;13887;57.196;-2.100;2023-07-29T04:13:56;16.55;78.77
22069;DHT22;13887;57.196;-2.100;2023-07-29T04:16:24;16.57;78.81
22069;DHT22;13887;57.196;-2.100;2023-07-29T04:18:51;16.55;78.77
22069;DHT22;13887;57.196;-2.100;2023-07-29T04:21:19;16.56;78.84
22069;DHT22;13887;57.196;-2.100;2023-07-29T04:23:47;16.57;78.76
22069;DHT22;13887;57.196;-2.100;2023-07-29T04:26:14;16.58;78.72
22069;DHT22;13887;57.196;-2.100;2023-07-29T04:28:42;16.57;78.76
22069;DHT22;13887;57.196;-2.100;2023-07-29T04:31:09;16.56;78.72
22069;DHT22;13887;57.196;-2.100;2023-07-29T04:33:36;16.54;78.68
22069;DHT22;13887;57.196;-2.100;2023-07-29T04:36:04;16.55;78.67
22069;DHT22;13887;57.196;-2.100;2023-07-29T04:38:32;16.55;78.53
22069;DHT22;13887;57.196;-2.100;2023-07-29T04:41:00;16.56;78.56
22069;DHT22;13887;57.196;-2.100;2023-07-29T04:43:31;16.58;78.43
22069;DHT22;13887;57.196;-2.100;2023-07-29T04:45:59;16.56;78.54
22069;DHT22;13887;57.196;-2.100;2023-07-29T04:48:26;16.51;78.50
22069;DHT22;13887;57.196;-2.100;2023-07-29T04:50:54;16.54;78.53
22069;DHT22;13887;57.196;-2.100;2023-07-29T04:53:21;16.57;78.47
22069;DHT22;13887;57.196;-2.100;2023-07-29T04:55:48;16.54;78.45
22069;DHT22;13887;57.196;-2.100;2023-07-29T04:58:15;16.54;78.63
22069;DHT22;13887;57.196;-2.100;2023-07-29T05:00:43;16.54;78.63
22069;DHT22;13887;57.196;-2.100;2023-07-29T05:03:10;16.54;78.65
22069;DHT22;13887;57.196;-2.100;2023-07-29T05:05:37;16.54;78.61
22069;DHT22;13887;57.196;-2.100;2023-07-29T05:08:04;16.55;78.71
22069;DHT22;13887;57.196;-2.100;2023-07-29T05:10:32;16.56;78.66
22069;DHT22;13887;57.196;-2.100;2023-07-29T05:12:59;16.56;78.66
22069;DHT22;13887;57.196;-2.100;2023-07-29T05:15:26;16.54;78.69
22069;DHT22;13887;57.196;-2.100;2023-07-29T05:17:53;16.54;78.69
22069;DHT22;13887;57.196;-2.100;2023-07-29T05:20:20;16.51;78.79
22069;DHT22;13887;57.196;-2.100;2023-07-29T05:22:47;16.51;78.82
22069;DHT22;13887;57.196;-2.100;2023-07-29T05:25:15;16.54;78.79
22069;DHT22;13887;57.196;-2.100;2023-07-29T05:27:42;16.55;78.71
22069;DHT22;13887;57.196;-2.100;2023-07-29T05:30:09;16.54;78.73
22069;DHT22;13887;57.196;-2.100;2023-07-29T05:32:36;16.52;78.78
22069;DHT22;13887;57.196;-2.100;2023-07-29T05:35:05;16.54;78.80
22069;DHT22;13887;57.196;-2.100;2023-07-29T05:37:33;16.52;78.90
22069;DHT22;13887;57.196;-2.100;2023-07-29T05:40:00;16.51;79.02
22069;DHT22;13887;57.196;-2.100;2023-07-29T05:42:27;16.52;79.03
22069;DHT22;13887;57.196;-2.100;2023-07-29T05:44:54;16.52;79.03
22069;DHT22;13887;57.196;-2.100;2023-07-29T05:47:22;16.52;79.14
22069;DHT22;13887;57.196;-2.100;2023-07-29T05:49:49;16.52;79.14
22069;DHT22;13887;57.196;-2.100;2023-07-29T05:52:16;16.51;79.14
22069;DHT22;13887;57.196;-2.100;2023-07-29T05:54:43;16.54;79.19
22069;DHT22;13887;57.196;-2.100;2023-07-29T05:57:11;16.52;79.23
22069;DHT22;13887;57.196;-2.100;2023-07-29T05:59:39;16.52;79.14
22069;DHT22;13887;57.196;-2.100;2023-07-29T06:02:07;16.52;79.19
22069;DHT22;13887;57.196;-2.100;2023-07-29T06:04:34;16.52;79.31
22069;DHT22;13887;57.196;-2.100;2023-07-29T06:07:01;16.51;79.24
22069;DHT22;13887;57.196;-2.100;2023-07-29T06:09:29;16.54;79.25
22069;DHT22;13887;57.196;-2.100;2023-07-29T06:11:56;16.54;79.21
22069;DHT22;13887;57.196;-2.100;2023-07-29T06:14:24;16.52;79.21
22069;DHT22;13887;57.196;-2.100;2023-07-29T06:16:51;16.54;79.21
22069;DHT22;13887;57.196;-2.100;2023-07-29T06:19:20;16.56;79.13
22069;DHT22;13887;57.196;-2.100;2023-07-29T06:21:48;16.54;79.20
22069;DHT22;13887;57.196;-2.100;2023-07-29T06:24:15;16.54;79.25
22069;DHT22;13887;57.196;-2.100;2023-07-29T06:26:42;16.57;79.18
22069;DHT22;13887;57.196;-2.100;2023-07-29T06:29:09;16.58;79.20
22069;DHT22;13887;57.196;-2.100;2023-07-29T06:31:36;16.55;79.28
22069;DHT22;13887;57.196;-2.100;2023-07-29T06:34:03;16.56;79.28
22069;DHT22;13887;57.196;-2.100;2023-07-29T06:36:30;16.56;79.30
22069;DHT22;13887;57.196;-2.100;2023-07-29T06:38:57;16.60;79.24
22069;DHT22;13887;57.196;-2.100;2023-07-29T06:41:24;16.57;79.33
22069;DHT22;13887;57.196;-2.100;2023-07-29T06:43:51;16.57;79.41
22069;DHT22;13887;57.196;-2.100;2023-07-29T06:46:19;16.57;79.30
22069;DHT22;13887;57.196;-2.100;2023-07-29T06:48:46;16.59;79.35
22069;DHT22;13887;57.196;-2.100;2023-07-29T06:51:13;16.59;79.27
22069;DHT22;13887;57.196;-2.100;2023-07-29T06:53:40;16.60;79.36
22069;DHT22;13887;57.196;-2.100;2023-07-29T06:56:07;16.61;79.32
22069;DHT22;13887;57.196;-2.100;2023-07-29T06:58:34;16.62;79.24
22069;DHT22;13887;57.196;-2.100;2023-07-29T07:01:02;16.64;79.20
22069;DHT22;13887;57.196;-2.100;2023-07-29T07:03:30;16.65;79.14
22069;DHT22;13887;57.196;-2.100;2023-07-29T07:05:57;16.65;79.29
22069;DHT22;13887;57.196;-2.100;2023-07-29T07:08:24;16.66;79.20
22069;DHT22;13887;57.196;-2.100;2023-07-29T07:10:51;16.66;79.19
22069;DHT22;13887;57.196;-2.100;2023-07-29T07:13:18;16.66;79.17
22069;DHT22;13887;57.196;-2.100;2023-07-29T07:15:47;16.66;79.11
22069;DHT22;13887;57.196;-2.100;2023-07-29T07:18:14;16.67;79.18
22069;DHT22;13887;57.196;-2.100;2023-07-29T07:20:41;16.69;79.15
22069;DHT22;13887;57.196;-2.100;2023-07-29T07:23:08;16.73;78.98
22069;DHT22;13887;57.196;-2.100;2023-07-29T07:25:38;16.76;78.92
22069;DHT22;13887;57.196;-2.100;2023-07-29T07:28:06;16.78;78.85
22069;DHT22;13887;57.196;-2.100;2023-07-29T07:30:33;16.80;79.01
22069;DHT22;13887;57.196;-2.100;2023-07-29T07:33:00;16.82;79.14
22069;DHT22;13887;57.196;-2.100;2023-07-29T07:35:27;16.81;79.18
22069;DHT22;13887;57.196;-2.100;2023-07-29T07:37:55;16.81;79.29
22069;DHT22;13887;57.196;-2.100;2023-07-29T07:40:22;16.81;79.16
22069;DHT22;13887;57.196;-2.100;2023-07-29T07:42:49;16.79;79.10
22069;DHT22;13887;57.196;-2.100;2023-07-29T07:45:16;16.82;79.05
22069;DHT22;13887;57.196;-2.100;2023-07-29T07:47:44;16.80;79.28
22069;DHT22;13887;57.196;-2.100;2023-07-29T07:50:12;16.80;79.52
22069;DHT22;13887;57.196;-2.100;2023-07-29T07:52:40;16.81;79.41
22069;DHT22;13887;57.196;-2.100;2023-07-29T07:55:08;16.81;79.35
22069;DHT22;13887;57.196;-2.100;2023-07-29T07:57:35;16.82;79.56
22069;DHT22;13887;57.196;-2.100;2023-07-29T08:00:02;16.81;79.84
22069;DHT22;13887;57.196;-2.100;2023-07-29T08:02:38;16.81;79.75
22069;DHT22;13887;57.196;-2.100;2023-07-29T08:05:06;16.82;79.70
22069;DHT22;13887;57.196;-2.100;2023-07-29T08:07:33;16.84;79.59
22069;DHT22;13887;57.196;-2.100;2023-07-29T08:10:00;16.82;79.52
22069;DHT22;13887;57.196;-2.100;2023-07-29T08:12:27;16.85;79.75
22069;DHT22;13887;57.196;-2.100;2023-07-29T08:14:54;16.82;79.69
22069;DHT22;13887;57.196;-2.100;2023-07-29T08:17:21;16.85;79.59
22069;DHT22;13887;57.196;-2.100;2023-07-29T08:19:49;16.82;79.65
22069;DHT22;13887;57.196;-2.100;2023-07-29T08:22:16;16.86;79.63
22069;DHT22;13887;57.196;-2.100;2023-07-29T08:24:44;16.86;79.61
22069;DHT22;13887;57.196;-2.100;2023-07-29T08:27:11;16.89;79.49
22069;DHT22;13887;57.196;-2.100;2023-07-29T08:29:38;16.91;79.43
22069;DHT22;13887;57.196;-2.100;2023-07-29T08:32:06;16.92;79.37
22069;DHT22;13887;57.196;-2.100;2023-07-29T08:34:33;16.92;79.47
22069;DHT22;13887;57.196;-2.100;2023-07-29T08:37:01;16.94;79.55
22069;DHT22;13887;57.196;-2.100;2023-07-29T08:39:28;16.95;79.52
22069;DHT22;13887;57.196;-2.100;2023-07-29T08:42:04;16.94;79.56
22069;DHT22;13887;57.196;-2.100;2023-07-29T08:44:42;16.94;79.64
22069;DHT22;13887;57.196;-2.100;2023-07-29T08:47:09;16.98;79.79
22069;DHT22;13887;57.196;-2.100;2023-07-29T08:49:37;16.99;80.07
22069;DHT22;13887;57.196;-2.100;2023-07-29T08:52:07;17.00;79.91
22069;DHT22;13887;57.196;-2.100;2023-07-29T08:54:34;17.01;79.64
22069;DHT22;13887;57.196;-2.100;2023-07-29T08:57:02;17.02;79.52
22069;DHT22;13887;57.196;-2.100;2023-07-29T08:59:30;17.03;79.50
22069;DHT22;13887;57.196;-2.100;2023-07-29T09:01:58;17.03;79.49
22069;DHT22;13887;57.196;-2.100;2023-07-29T09:04:25;17.05;79.70
22069;DHT22;13887;57.196;-2.100;2023-07-29T09:06:53;17.04;79.63
22069;DHT22;13887;57.196;-2.100;2023-07-29T09:09:21;17.04;80.10
22069;DHT22;13887;57.196;-2.100;2023-07-29T09:11:49;17.01;80.55
22069;DHT22;13887;57.196;-2.100;2023-07-29T09:14:16;17.02;80.54
22069;DHT22;13887;57.196;-2.100;2023-07-29T09:16:43;17.00;81.28
22069;DHT22;13887;57.196;-2.100;2023-07-29T09:19:11;16.99;81.55
22069;DHT22;13887;57.196;-2.100;2023-07-29T09:21:39;16.98;81.55
22069;DHT22;13887;57.196;-2.100;2023-07-29T09:24:07;17.00;81.49
22069;DHT22;13887;57.196;-2.100;2023-07-29T09:26:35;17.02;81.81
22069;DHT22;13887;57.196;-2.100;2023-07-29T09:29:03;17.01;82.10
22069;DHT22;13887;57.196;-2.100;2023-07-29T09:31:30;17.03;81.88
22069;DHT22;13887;57.196;-2.100;2023-07-29T09:33:59;17.05;81.75
22069;DHT22;13887;57.196;-2.100;2023-07-29T09:36:27;17.06;82.04
22069;DHT22;13887;57.196;-2.100;2023-07-29T09:38:55;17.07;82.51
22069;DHT22;13887;57.196;-2.100;2023-07-29T09:41:24;17.08;82.26
22069;DHT22;13887;57.196;-2.100;2023-07-29T09:44:04;17.11;82.08
22069;DHT22;13887;57.196;-2.100;2023-07-29T09:46:34;17.13;81.91
22069;DHT22;13887;57.196;-2.100;2023-07-29T09:49:04;17.13;81.75
22069;DHT22;13887;57.196;-2.100;2023-07-29T09:51:41;17.15;81.61
22069;DHT22;13887;57.196;-2.100;2023-07-29T09:54:10;17.16;81.48
22069;DHT22;13887;57.196;-2.100;2023-07-29T09:56:41;17.18;81.14
22069;DHT22;13887;57.196;-2.100;2023-07-29T09:59:10;17.20;81.10
22069;DHT22;13887;57.196;-2.100;2023-07-29T10:01:37;17.17;81.01
22069;DHT22;13887;57.196;-2.100;2023-07-29T10:04:05;17.17;80.94
22069;DHT22;13887;57.196;-2.100;2023-07-29T10:06:35;17.18;80.81
22069;DHT22;13887;57.196;-2.100;2023-07-29T10:09:05;17.18;80.78
22069;DHT22;13887;57.196;-2.100;2023-07-29T10:11:34;17.16;80.81
22069;DHT22;13887;57.196;-2.100;2023-07-29T10:14:02;17.17;80.74
22069;DHT22;13887;57.196;-2.100;2023-07-29T10:16:39;17.18;80.60
22069;DHT22;13887;57.196;-2.100;2023-07-29T10:19:07;17.20;80.54
22069;DHT22;13887;57.196;-2.100;2023-07-29T10:21:38;17.20;80.49
22069;DHT22;13887;57.196;-2.100;2023-07-29T10:24:09;17.21;80.41
22069;DHT22;13887;57.196;-2.100;2023-07-29T10:26:41;17.22;80.25
22069;DHT22;13887;57.196;-2.100;2023-07-29T10:29:12;17.25;80.15
22069;DHT22;13887;57.196;-2.100;2023-07-29T10:31:42;17.26;80.08
22069;DHT22;13887;57.196;-2.100;2023-07-29T10:34:11;17.28;79.95
22069;DHT22;13887;57.196;-2.100;2023-07-29T10:36:40;17.29;79.90
22069;DHT22;13887;57.196;-2.100;2023-07-29T10:39:08;17.30;79.81
22069;DHT22;13887;57.196;-2.100;2023-07-29T10:42:00;17.32;79.69
22069;DHT22;13887;57.196;-2.100;2023-07-29T10:47:13;17.36;79.42
22069;DHT22;13887;57.196;-2.100;2023-07-29T10:49:45;17.35;79.39
22069;DHT22;13887;57.196;-2.100;2023-07-29T10:52:13;17.34;79.55
22069;DHT22;13887;57.196;-2.100;2023-07-29T10:54:42;17.34;79.49
22069;DHT22;13887;57.196;-2.100;2023-07-29T10:57:14;17.38;79.35
22069;DHT22;13887;57.196;-2.100;2023-07-29T10:59:54;17.39;79.24
22069;DHT22;13887;57.196;-2.100;2023-07-29T11:02:30;17.40;79.25
22069;DHT22;13887;57.196;-2.100;2023-07-29T11:04:58;17.39;79.29
22069;DHT22;13887;57.196;-2.100;2023-07-29T11:07:27;17.39;79.31
22069;DHT22;13887;57.196;-2.100;2023-07-29T11:10:02;17.39;79.25
22069;DHT22;13887;57.196;-2.100;2023-07-29T11:17:39;17.39;79.27
22069;DHT22;13887;57.196;-2.100;2023-07-29T11:20:07;17.39;79.21
22069;DHT22;13887;57.196;-2.100;2023-07-29T11:22:35;17.43;78.85
22069;DHT22;13887;57.196;-2.100;2023-07-29T11:25:03;17.44;78.82
22069;DHT22;13887;57.196;-2.100;2023-07-29T11:27:32;17.45;78.80
22069;DHT22;13887;57.196;-2.100;2023-07-29T11:30:04;17.48;78.74
22069;DHT22;13887;57.196;-2.100;2023-07-29T11:32:33;17.49;78.72
22069;DHT22;13887;57.196;-2.100;2023-07-29T11:35:21;17.52;78.56
22069;DHT22;13887;57.196;-2.100;2023-07-29T11:37:50;17.52;78.72
22069;DHT22;13887;57.196;-2.100;2023-07-29T11:40:20;17.53;78.72
22069;DHT22;13887;57.196;-2.100;2023-07-29T11:42:48;17.53;77.98
22069;DHT22;13887;57.196;-2.100;2023-07-29T11:45:20;17.55;77.72
22069;DHT22;13887;57.196;-2.100;2023-07-29T11:47:51;17.56;77.92
22069;DHT22;13887;57.196;-2.100;2023-07-29T11:50:18;17.56;77.99
22069;DHT22;13887;57.196;-2.100;2023-07-29T11:52:46;17.56;77.90
22069;DHT22;13887;57.196;-2.100;2023-07-29T11:55:15;17.58;77.87
22069;DHT22;13887;57.196;-2.100;2023-07-29T11:57:43;17.58;77.91
22069;DHT22;13887;57.196;-2.100;2023-07-29T12:00:11;17.63;77.72
22069;DHT22;13887;57.196;-2.100;2023-07-29T12:02:43;17.66;77.50
22069;DHT22;13887;57.196;-2.100;2023-07-29T12:05:13;17.65;77.29
22069;DHT22;13887;57.196;-2.100;2023-07-29T12:07:42;17.65;77.27
22069;DHT22;13887;57.196;-2.100;2023-07-29T12:10:10;17.66;77.05
22069;DHT22;13887;57.196;-2.100;2023-07-29T12:12:47;17.69;77.03
22069;DHT22;13887;57.196;-2.100;2023-07-29T12:15:25;17.72;76.82
22069;DHT22;13887;57.196;-2.100;2023-07-29T12:17:58;17.72;76.92
22069;DHT22;13887;57.196;-2.100;2023-07-29T12:20:26;17.74;76.94
22069;DHT22;13887;57.196;-2.100;2023-07-29T12:22:55;17.74;76.89
22069;DHT22;13887;57.196;-2.100;2023-07-29T12:25:23;17.72;76.63
22069;DHT22;13887;57.196;-2.100;2023-07-29T12:27:51;17.74;76.55
22069;DHT22;13887;57.196;-2.100;2023-07-29T12:30:21;17.76;76.79
22069;DHT22;13887;57.196;-2.100;2023-07-29T12:32:49;17.78;76.73
22069;DHT22;13887;57.196;-2.100;2023-07-29T12:35:16;17.79;76.77
22069;DHT22;13887;57.196;-2.100;2023-07-29T12:37:43;17.80;76.58
22069;DHT22;13887;57.196;-2.100;2023-07-29T12:40:26;17.82;76.47
22069;DHT22;13887;57.196;-2.100;2023-07-29T12:42:54;17.84;76.41
22069;DHT22;13887;57.196;-2.100;2023-07-29T12:45:21;17.85;76.84
22069;DHT22;13887;57.196;-2.100;2023-07-29T12:47:56;17.83;76.81
22069;DHT22;13887;57.196;-2.100;2023-07-29T12:50:23;17.83;77.13
22069;DHT22;13887;57.196;-2.100;2023-07-29T12:52:50;17.85;77.11
22069;DHT22;13887;57.196;-2.100;2023-07-29T12:55:17;17.87;77.82
22069;DHT22;13887;57.196;-2.100;2023-07-29T12:57:50;17.88;77.50
22069;DHT22;13887;57.196;-2.100;2023-07-29T13:00:17;17.94;77.60
22069;DHT22;13887;57.196;-2.100;2023-07-29T13:02:44;17.98;77.48
22069;DHT22;13887;57.196;-2.100;2023-07-29T13:05:12;18.02;77.14
22069;DHT22;13887;57.196;-2.100;2023-07-29T13:07:40;18.03;77.90
22069;DHT22;13887;57.196;-2.100;2023-07-29T13:10:11;18.05;77.19
22069;DHT22;13887;57.196;-2.100;2023-07-29T13:12:39;18.08;77.40
22069;DHT22;13887;57.196;-2.100;2023-07-29T13:15:07;18.07;77.13
22069;DHT22;13887;57.196;-2.100;2023-07-29T13:17:34;18.07;77.10
22069;DHT22;13887;57.196;-2.100;2023-07-29T13:20:02;18.08;77.27
22069;DHT22;13887;57.196;-2.100;2023-07-29T13:22:29;18.11;77.95
22069;DHT22;13887;57.196;-2.100;2023-07-29T13:24:56;18.10;77.87
22069;DHT22;13887;57.196;-2.100;2023-07-29T13:27:23;18.07;77.54
22069;DHT22;13887;57.196;-2.100;2023-07-29T13:29:52;18.07;76.00
22069;DHT22;13887;57.196;-2.100;2023-07-29T13:32:19;18.24;76.04
22069;DHT22;13887;57.196;-2.100;2023-07-29T13:34:46;18.35;74.60
22069;DHT22;13887;57.196;-2.100;2023-07-29T13:37:14;18.35;75.18
22069;DHT22;13887;57.196;-2.100;2023-07-29T13:39:41;18.35;74.75
22069;DHT22;13887;57.196;-2.100;2023-07-29T13:42:08;18.35;75.54
22069;DHT22;13887;57.196;-2.100;2023-07-29T13:44:35;18.34;75.09
22069;DHT22;13887;57.196;-2.100;2023-07-29T13:47:02;18.35;75.47
22069;DHT22;13887;57.196;-2.100;2023-07-29T13:49:30;18.36;76.47
22069;DHT22;13887;57.196;-2.100;2023-07-29T13:51:57;18.37;76.10
22069;DHT22;13887;57.196;-2.100;2023-07-29T13:54:24;18.39;76.39
22069;DHT22;13887;57.196;-2.100;2023-07-29T13:56:51;18.41;76.44
22069;DHT22;13887;57.196;-2.100;2023-07-29T13:59:20;18.43;77.02
22069;DHT22;13887;57.196;-2.100;2023-07-29T14:01:47;18.47;78.56
22069;DHT22;13887;57.196;-2.100;2023-07-29T14:04:14;18.48;78.82
22069;DHT22;13887;57.196;-2.100;2023-07-29T14:06:41;18.50;78.19
22069;DHT22;13887;57.196;-2.100;2023-07-29T14:09:12;18.49;78.16
22069;DHT22;13887;57.196;-2.100;2023-07-29T14:11:39;18.51;77.15
22069;DHT22;13887;57.196;-2.100;2023-07-29T14:14:07;18.50;76.79
22069;DHT22;13887;57.196;-2.100;2023-07-29T14:16:34;18.48;76.19
22069;DHT22;13887;57.196;-2.100;2023-07-29T14:19:02;18.54;75.59
22069;DHT22;13887;57.196;-2.100;2023-07-29T14:21:30;18.55;76.21
22069;DHT22;13887;57.196;-2.100;2023-07-29T14:23:57;18.56;75.89
22069;DHT22;13887;57.196;-2.100;2023-07-29T14:26:24;18.55;76.44
22069;DHT22;13887;57.196;-2.100;2023-07-29T14:28:52;18.56;77.49
22069;DHT22;13887;57.196;-2.100;2023-07-29T14:31:19;18.54;76.83
22069;DHT22;13887;57.196;-2.100;2023-07-29T14:33:46;18.58;76.98
22069;DHT22;13887;57.196;-2.100;2023-07-29T14:36:13;18.59;76.28
22069;DHT22;13887;57.196;-2.100;2023-07-29T14:38:41;18.59;76.37
22069;DHT22;13887;57.196;-2.100;2023-07-29T14:41:12;18.64;77.66
22069;DHT22;13887;57.196;-2.100;2023-07-29T14:43:39;18.58;77.30
22069;DHT22;13887;57.196;-2.100;2023-07-29T14:46:06;18.58;77.50
22069;DHT22;13887;57.196;-2.100;2023-07-29T14:48:33;18.68;79.21
22069;DHT22;13887;57.196;-2.100;2023-07-29T14:51:01;18.68;76.35
22069;DHT22;13887;57.196;-2.100;2023-07-29T14:53:28;18.66;77.31
22069;DHT22;13887;57.196;-2.100;2023-07-29T14:55:55;18.65;78.28
22069;DHT22;13887;57.196;-2.100;2023-07-29T14:58:22;18.64;78.11
22069;DHT22;13887;57.196;-2.100;2023-07-29T15:00:53;18.62;77.62
22069;DHT22;13887;57.196;-2.100;2023-07-29T15:03:21;18.58;77.47
22069;DHT22;13887;57.196;-2.100;2023-07-29T15:05:49;18.58;77.05
22069;DHT22;13887;57.196;-2.100;2023-07-29T15:08:16;18.58;77.40
22069;DHT22;13887;57.196;-2.100;2023-07-29T15:10:48;18.57;77.95
22069;DHT22;13887;57.196;-2.100;2023-07-29T15:13:15;18.57;78.59
22069;DHT22;13887;57.196;-2.100;2023-07-29T15:15:43;18.52;77.01
22069;DHT22;13887;57.196;-2.100;2023-07-29T15:18:11;18.55;77.18
22069;DHT22;13887;57.196;-2.100;2023-07-29T15:20:38;18.50;76.25
22069;DHT22;13887;57.196;-2.100;2023-07-29T15:23:05;18.52;76.08
22069;DHT22;13887;57.196;-2.100;2023-07-29T15:25:32;18.55;76.70
22069;DHT22;13887;57.196;-2.100;2023-07-29T15:27:59;18.58;76.37
22069;DHT22;13887;57.196;-2.100;2023-07-29T15:30:26;18.63;76.93
22069;DHT22;13887;57.196;-2.100;2023-07-29T15:32:54;18.67;76.86